Time;durP1;ratioP1;P1;durP2;ratioP2;P2;SDS_P1;SDS_P2;PMS_P1;PMS_P2;Temp;Humidity;BMP_temperature;BMP_pressure;BME280_temperature;BME280_humidity;BME280_pressure;Samples;Min_cycle;Max_cycle;Signal;HPM_P1;HPM_P2
2022/12/18 00:01:25;;;;;;;55.37;21.83;;;-1.70;99.90;;;;;;4944389;28;20101;-76
2022/12/18 00:03:52;;;;;;;45.93;24.50;;;-1.70;99.90;;;;;;4943360;28;20062;-76
2022/12/18 00:06:21;;;;;;;35.27;22.87;;;-1.70;99.90;;;;;;4945021;28;20040;-76
2022/12/18 00:08:47;;;;;;;34.23;20.30;;;-1.70;99.90;;;;;;4944153;28;20054;-76
2022/12/18 00:11:16;;;;;;;46.80;23.07;;;-1.70;99.90;;;;;;4943471;28;20092;-77
2022/12/18 00:13:42;;;;;;;40.17;23.93;;;-1.70;99.90;;;;;;4942523;29;20491;-75
2022/12/18 00:16:11;;;;;;;39.53;25.87;;;-1.70;99.90;;;;;;4924966;29;20083;-76
2022/12/18 00:18:37;;;;;;;45.67;26.13;;;-1.70;99.90;;;;;;4942999;29;20047;-76
2022/12/18 00:21:05;;;;;;;44.17;22.53;;;-1.70;99.90;;;;;;4947546;28;20045;-76
2022/12/18 00:23:34;;;;;;;42.33;20.23;;;-1.70;99.90;;;;;;4948036;28;20090;-76
2022/12/18 00:26:04;;;;;;;40.00;22.13;;;-1.70;99.90;;;;;;4946881;28;20087;-75
2022/12/18 00:28:30;;;;;;;27.70;18.20;;;-1.70;99.90;;;;;;4947619;28;20043;-76
2022/12/18 00:31:04;;;;;;;40.07;21.60;;;-1.70;99.90;;;;;;4947412;28;20475;-76
2022/12/18 00:33:30;;;;;;;44.70;21.97;;;-1.70;99.90;;;;;;4948362;28;20035;-75
2022/12/18 00:36:04;;;;;;;40.93;22.37;;;-1.70;99.90;;;;;;4947435;28;20564;-75
2022/12/18 00:38:29;;;;;;;51.20;25.83;;;-1.70;99.90;;;;;;4947928;28;20046;-76
2022/12/18 00:40:55;;;;;;;41.40;21.60;;;-1.70;99.90;;;;;;4946740;28;20122;-75
2022/12/18 00:43:21;;;;;;;35.30;22.53;;;-1.70;99.90;;;;;;4947905;28;20039;-76
2022/12/18 00:45:46;;;;;;;60.03;24.67;;;-1.70;99.90;;;;;;4948658;28;20046;-76
2022/12/18 00:48:12;;;;;;;32.23;19.50;;;-1.80;99.90;;;;;;4947511;28;20054;-75
2022/12/18 00:50:38;;;;;;;38.20;20.80;;;-1.80;99.90;;;;;;4946809;29;20067;-76
2022/12/18 00:53:03;;;;;;;39.50;24.17;;;-1.80;99.90;;;;;;4946154;29;20109;-76
2022/12/18 00:55:29;;;;;;;42.73;22.07;;;-1.80;99.90;;;;;;4946865;28;20486;-76
2022/12/18 00:57:54;;;;;;;38.10;20.57;;;-1.70;99.90;;;;;;4947335;28;20031;-76
2022/12/18 01:00:21;;;;;;;30.87;19.40;;;-1.80;99.90;;;;;;4947637;28;20570;-76
2022/12/18 01:02:46;;;;;;;35.33;20.83;;;-1.70;99.90;;;;;;4946482;29;20043;-77
2022/12/18 01:05:13;;;;;;;50.77;24.27;;;-1.70;99.90;;;;;;4947084;28;20043;-76
2022/12/18 01:07:39;;;;;;;46.90;22.80;;;-1.70;99.90;;;;;;4947563;28;20105;-76
2022/12/18 01:10:06;;;;;;;36.57;23.43;;;-1.70;99.90;;;;;;4945797;28;20118;-75
2022/12/18 01:12:32;;;;;;;43.17;23.90;;;-1.80;99.90;;;;;;4947251;28;20040;-75
2022/12/18 01:14:58;;;;;;;36.47;18.63;;;-1.70;99.90;;;;;;4947214;28;20505;-75
2022/12/18 01:17:24;;;;;;;45.10;24.40;;;-1.70;99.90;;;;;;4946203;29;20082;-76
2022/12/18 01:19:49;;;;;;;37.10;22.50;;;-1.70;99.90;;;;;;4945511;29;20093;-76
2022/12/18 01:22:15;;;;;;;46.70;23.20;;;-1.70;99.90;;;;;;4947604;28;20043;-76
2022/12/18 01:24:40;;;;;;;28.73;20.00;;;-1.80;99.90;;;;;;4947245;28;20390;-76
2022/12/18 01:27:26;;;;;;;44.23;20.20;;;-1.70;99.90;;;;;;4945683;28;20494;-75
2022/12/18 01:29:52;;;;;;;40.07;25.07;;;-1.80;99.90;;;;;;4946130;28;20112;-75
2022/12/18 01:32:17;;;;;;;32.90;20.73;;;-1.80;99.90;;;;;;4947266;28;20380;-75
2022/12/18 01:34:43;;;;;;;39.20;20.13;;;-1.80;99.90;;;;;;4947105;28;20087;-76
2022/12/18 01:37:09;;;;;;;40.70;21.60;;;-1.80;99.90;;;;;;4946306;28;20058;-75
2022/12/18 01:39:34;;;;;;;35.90;21.13;;;-1.80;99.90;;;;;;4945652;28;20123;-76
2022/12/18 01:42:04;;;;;;;41.97;23.50;;;-1.80;99.90;;;;;;4945697;28;20553;-76
2022/12/18 01:44:55;;;;;;;37.27;20.93;;;-1.80;99.90;;;;;;4945486;28;20499;-76
2022/12/18 01:47:41;;;;;;;35.47;20.37;;;-1.80;99.90;;;;;;4946280;28;20090;-75
2022/12/18 01:50:11;;;;;;;37.90;20.40;;;-1.80;99.90;;;;;;4945006;29;20103;-76
2022/12/18 01:52:38;;;;;;;34.53;18.07;;;-1.80;99.90;;;;;;4946364;28;20134;-75
2022/12/18 01:55:06;;;;;;;28.90;19.27;;;-1.80;99.90;;;;;;4945564;28;20051;-76
2022/12/18 01:57:32;;;;;;;37.00;16.53;;;-1.80;99.90;;;;;;4945599;29;20055;-76
2022/12/18 02:00:02;;;;;;;29.73;20.03;;;-1.90;99.90;;;;;;4946165;28;20061;-76
2022/12/18 02:02:29;;;;;;;37.77;18.73;;;-1.90;99.90;;;;;;4946296;28;20051;-75
2022/12/18 02:04:55;;;;;;;41.90;18.60;;;-1.90;99.90;;;;;;4944971;29;20438;-75
2022/12/18 02:07:33;;;;;;;34.33;19.47;;;-1.90;99.90;;;;;;4946175;28;20047;-75
2022/12/18 02:10:05;;;;;;;43.13;24.80;;;-1.90;99.90;;;;;;4943873;29;20055;-76
2022/12/18 02:12:45;;;;;;;42.97;22.35;;;-1.90;99.90;;;;;;5035732;23;20062;-75
2022/12/18 02:15:29;;;;;;;37.07;18.87;;;-1.90;99.90;;;;;;4971789;28;20050;-75
2022/12/18 02:18:24;;;;;;;34.60;19.97;;;-1.90;99.90;;;;;;4972787;28;20050;-75
2022/12/18 02:21:13;;;;;;;34.60;16.57;;;-2.00;99.90;;;;;;4962484;28;20054;-76
2022/12/18 02:23:54;;;;;;;40.77;16.50;;;-2.00;99.90;;;;;;4964374;28;20058;-75
2022/12/18 02:26:25;;;;;;;29.50;18.73;;;-2.10;99.90;;;;;;4970209;28;20050;-74
2022/12/18 02:28:56;;;;;;;25.07;15.93;;;-2.10;99.90;;;;;;4967223;28;20500;-76
2022/12/18 02:31:29;;;;;;;43.50;19.33;;;-2.10;99.90;;;;;;4981326;28;20047;-75
2022/12/18 02:33:58;;;;;;;40.30;19.23;;;-2.10;99.90;;;;;;4982929;28;20042;-76
2022/12/18 02:36:26;;;;;;;35.30;19.97;;;-2.10;99.90;;;;;;4979374;28;20571;-76
2022/12/18 02:38:53;;;;;;;34.00;19.97;;;-2.10;99.90;;;;;;4966040;28;20493;-75
2022/12/18 02:41:19;;;;;;;31.97;18.80;;;-2.20;99.90;;;;;;4963060;28;20051;-77
2022/12/18 02:43:58;;;;;;;32.80;19.60;;;-2.20;99.90;;;;;;4982815;28;20104;-75
2022/12/18 02:46:37;;;;;;;38.97;18.37;;;-2.20;99.90;;;;;;4984328;28;20041;-75
2022/12/18 02:49:10;;;;;;;35.40;17.87;;;-2.20;99.90;;;;;;4979886;28;20042;-75
2022/12/18 02:52:20;;;;;;;31.93;19.60;;;-2.20;99.90;;;;;;4977565;28;20042;-76
2022/12/18 02:55:08;;;;;;;34.40;15.50;;;-2.30;99.90;;;;;;4983052;28;20058;-75
2022/12/18 02:57:42;;;;;;;30.17;18.30;;;-2.30;99.90;;;;;;4979125;28;20108;-75
2022/12/18 03:00:13;;;;;;;37.00;20.17;;;-2.30;99.90;;;;;;4983995;28;20050;-76
2022/12/18 03:02:53;;;;;;;41.78;21.17;;;-2.30;99.90;;;;;;4972624;28;20058;-75
2022/12/18 03:05:33;;;;;;;40.40;20.00;;;-2.30;99.90;;;;;;4964083;28;20049;-77
2022/12/18 03:08:21;;;;;;;32.00;20.73;;;-2.30;99.90;;;;;;4975780;28;20121;-75
2022/12/18 03:11:10;;;;;;;34.87;15.50;;;-2.30;99.90;;;;;;4967867;28;20046;-76
2022/12/18 03:13:41;;;;;;;27.23;19.40;;;-2.40;99.90;;;;;;4982830;28;20213;-76
2022/12/18 03:16:12;;;;;;;32.77;17.03;;;-2.40;99.90;;;;;;4973292;28;20043;-75
2022/12/18 03:18:40;;;;;;;45.20;18.80;;;-2.40;99.90;;;;;;4970732;28;20035;-76
2022/12/18 03:21:08;;;;;;;51.03;19.20;;;-2.40;99.90;;;;;;4969573;28;20046;-76
2022/12/18 03:23:42;;;;;;;40.87;18.80;;;-2.40;99.90;;;;;;4963405;28;20046;-75
2022/12/18 03:26:12;;;;;;;32.47;18.00;;;-2.50;99.90;;;;;;4970999;28;20046;-76
2022/12/18 03:28:43;;;;;;;36.27;20.87;;;-2.50;99.90;;;;;;4965451;28;20058;-76
2022/12/18 03:31:12;;;;;;;21.38;15.82;;;-2.60;99.90;;;;;;4964262;28;20055;-75
2022/12/18 03:33:46;;;;;;;32.90;15.37;;;-2.60;99.90;;;;;;4965475;28;20173;-76
2022/12/18 03:36:12;;;;;;;24.90;16.33;;;-2.70;99.90;;;;;;4964930;28;20591;-75
2022/12/18 03:38:37;;;;;;;33.93;18.90;;;-2.70;99.90;;;;;;4975979;28;20052;-74
2022/12/18 03:41:15;;;;;;;31.83;17.70;;;-2.70;99.90;;;;;;4970152;28;20046;-76
2022/12/18 03:44:07;;;;;;;24.03;18.83;;;-2.80;99.90;;;;;;4971818;28;20047;-74
2022/12/18 03:46:44;;;;;;;32.75;15.98;;;-2.70;99.90;;;;;;4976931;28;20078;-77
2022/12/18 03:49:48;;;;;;;40.50;18.83;;;-2.80;99.90;;;;;;4983484;28;20057;-75
2022/12/18 03:52:44;;;;;;;33.23;17.00;;;-2.90;99.90;;;;;;4985860;28;20057;-75
2022/12/18 03:55:10;;;;;;;36.37;16.97;;;-3.00;99.90;;;;;;4980894;28;20054;-74
2022/12/18 03:57:37;;;;;;;26.47;16.60;;;-3.00;99.90;;;;;;4968422;28;20078;-74
2022/12/18 04:00:13;;;;;;;32.93;14.47;;;-3.00;99.90;;;;;;4967768;28;20477;-76
2022/12/18 04:02:54;;;;;;;34.30;17.13;;;-3.00;99.90;;;;;;4966919;28;20057;-74
2022/12/18 04:05:22;;;;;;;26.10;17.13;;;-3.10;99.90;;;;;;4967968;28;20057;-75
2022/12/18 04:07:50;;;;;;;29.87;19.13;;;-3.10;99.90;;;;;;4968811;28;20047;-75
2022/12/18 04:10:17;;;;;;;34.37;18.33;;;-3.10;99.90;;;;;;4966955;28;20081;-76
2022/12/18 04:12:43;;;;;;;29.67;15.30;;;-3.10;99.90;;;;;;4966710;28;20051;-76
2022/12/18 04:15:10;;;;;;;33.90;18.57;;;-3.10;99.90;;;;;;4967594;28;20062;-76
2022/12/18 04:17:35;;;;;;;29.13;16.43;;;-3.10;99.90;;;;;;4968733;28;20038;-75
2022/12/18 04:20:01;;;;;;;29.57;19.63;;;-3.10;99.90;;;;;;4968617;28;20313;-76
2022/12/18 04:22:27;;;;;;;30.23;15.97;;;-3.10;99.90;;;;;;4984062;28;20073;-75
2022/12/18 04:24:52;;;;;;;31.67;16.67;;;-3.10;99.90;;;;;;4976282;28;20485;-75
2022/12/18 04:27:18;;;;;;;35.57;17.93;;;-3.10;99.90;;;;;;4968313;28;20055;-75
2022/12/18 04:29:44;;;;;;;37.00;21.17;;;-3.20;99.90;;;;;;4977143;28;20050;-75
2022/12/18 04:32:09;;;;;;;30.07;19.20;;;-3.10;99.90;;;;;;4985991;28;20706;-76
2022/12/18 04:34:35;;;;;;;40.00;16.73;;;-3.20;99.90;;;;;;4974022;28;20050;-76
2022/12/18 04:37:00;;;;;;;30.93;17.53;;;-3.10;99.90;;;;;;4967463;28;20720;-76
2022/12/18 04:39:26;;;;;;;47.77;19.57;;;-3.20;99.90;;;;;;4966500;28;20413;-76
2022/12/18 04:41:52;;;;;;;28.77;16.43;;;-3.20;99.90;;;;;;4967151;28;20046;-75
2022/12/18 04:44:17;;;;;;;27.97;16.83;;;-3.20;99.90;;;;;;4967715;28;20035;-75
2022/12/18 04:46:43;;;;;;;26.83;14.77;;;-3.30;99.90;;;;;;4971209;28;20039;-75
2022/12/18 04:49:10;;;;;;;29.57;19.07;;;-3.30;99.90;;;;;;4986242;28;20089;-75
2022/12/18 04:51:36;;;;;;;36.60;19.00;;;-3.40;99.90;;;;;;4981069;28;20047;-76
2022/12/18 04:54:02;;;;;;;29.70;19.77;;;-3.40;99.90;;;;;;4972057;28;20034;-75
2022/12/18 04:56:27;;;;;;;29.87;16.03;;;-3.40;99.90;;;;;;4967362;28;20045;-75
2022/12/18 04:58:53;;;;;;;42.37;16.13;;;-3.30;99.90;;;;;;4967190;28;20564;-76
2022/12/18 05:01:19;;;;;;;32.93;17.90;;;-3.40;99.90;;;;;;4967542;28;20132;-77
2022/12/18 05:03:44;;;;;;;29.10;17.20;;;-3.40;99.90;;;;;;4978833;28;20255;-76
2022/12/18 05:06:10;;;;;;;29.17;16.67;;;-3.40;99.90;;;;;;4970358;28;20108;-76
2022/12/18 05:08:36;;;;;;;45.53;18.97;;;-3.40;99.90;;;;;;4974898;28;20043;-74
2022/12/18 05:11:10;;;;;;;24.77;16.97;;;-3.50;99.90;;;;;;4965337;28;20057;-75
2022/12/18 05:13:36;;;;;;;29.17;16.53;;;-3.50;99.90;;;;;;4977690;28;20062;-76
2022/12/18 05:16:02;;;;;;;37.83;15.63;;;-3.50;99.90;;;;;;4966555;28;20050;-75
2022/12/18 05:18:29;;;;;;;39.30;17.83;;;-3.50;99.90;;;;;;4966759;28;20141;-76
2022/12/18 05:20:54;;;;;;;44.20;18.43;;;-3.60;99.90;;;;;;4964987;28;20047;-74
2022/12/18 05:23:21;;;;;;;30.80;19.37;;;-3.60;99.90;;;;;;4970719;28;20471;-75
2022/12/18 05:25:59;;;;;;;29.80;17.00;;;-3.70;99.90;;;;;;4978483;28;20042;-75
2022/12/18 05:28:26;;;;;;;42.97;17.47;;;-3.70;99.90;;;;;;4975924;28;20178;-74
2022/12/18 05:30:56;;;;;;;25.47;15.37;;;-3.70;99.90;;;;;;4984374;28;20046;-75
2022/12/18 05:33:24;;;;;;;29.60;16.17;;;-3.80;99.90;;;;;;4985773;28;20125;-75
2022/12/18 05:35:53;;;;;;;51.60;19.37;;;-3.80;99.90;;;;;;4985672;28;20046;-76
2022/12/18 05:38:20;;;;;;;23.00;15.30;;;-3.80;99.90;;;;;;4984800;28;20046;-76
2022/12/18 05:40:47;;;;;;;30.73;14.93;;;-3.80;99.90;;;;;;4983535;28;20080;-75
2022/12/18 05:43:13;;;;;;;27.13;17.17;;;-3.80;99.90;;;;;;4972996;28;20113;-75
2022/12/18 05:45:39;;;;;;;33.43;16.20;;;-3.90;99.90;;;;;;4966229;28;20042;-74
2022/12/18 05:48:05;;;;;;;23.00;15.37;;;-3.90;99.90;;;;;;4965074;28;20109;-76
2022/12/18 05:50:35;;;;;;;37.00;15.87;;;-3.90;99.90;;;;;;4975685;28;20058;-75
2022/12/18 05:53:00;;;;;;;34.97;17.53;;;-3.90;99.90;;;;;;4965593;28;20049;-75
2022/12/18 05:55:26;;;;;;;24.57;15.63;;;-4.00;99.90;;;;;;4964486;28;20054;-74
2022/12/18 05:57:51;;;;;;;26.80;15.50;;;-4.00;99.90;;;;;;4969065;28;20395;-76
2022/12/18 06:00:17;;;;;;;35.87;19.13;;;-4.10;99.90;;;;;;4977639;28;20039;-75
2022/12/18 06:02:47;;;;;;;21.13;12.47;;;-4.10;99.90;;;;;;4966187;28;20038;-74
2022/12/18 06:05:12;;;;;;;29.40;15.23;;;-4.10;99.90;;;;;;4958742;28;20067;-76
2022/12/18 06:07:38;;;;;;;34.50;15.43;;;-4.10;99.90;;;;;;4982163;28;20401;-75
2022/12/18 06:10:04;;;;;;;29.87;14.70;;;-4.10;99.90;;;;;;4983753;28;20447;-75
2022/12/18 06:12:29;;;;;;;27.47;12.73;;;-4.20;99.90;;;;;;4983151;28;20062;-75
2022/12/18 06:14:55;;;;;;;21.07;15.50;;;-4.20;99.90;;;;;;4983981;28;20574;-75
2022/12/18 06:17:21;;;;;;;22.37;13.63;;;-4.20;99.90;;;;;;4985014;28;20038;-74
2022/12/18 06:19:46;;;;;;;32.37;17.93;;;-4.30;99.90;;;;;;4984078;28;20558;-75
2022/12/18 06:22:12;;;;;;;32.00;12.60;;;-4.30;99.90;;;;;;4981222;28;20046;-74
2022/12/18 06:24:37;;;;;;;23.47;12.27;;;-4.30;99.90;;;;;;4964816;28;20035;-75
2022/12/18 06:27:03;;;;;;;24.40;14.33;;;-4.40;99.90;;;;;;4968292;28;20043;-75
2022/12/18 06:29:28;;;;;;;24.57;12.13;;;-4.30;99.90;;;;;;4984601;28;20050;-75
2022/12/18 06:31:54;;;;;;;21.47;12.50;;;-4.30;99.90;;;;;;4971447;28;20468;-75
2022/12/18 06:34:20;;;;;;;33.63;16.53;;;-4.30;99.90;;;;;;4973563;28;20038;-76
2022/12/18 06:36:45;;;;;;;20.13;12.23;;;-4.30;99.90;;;;;;4974757;28;20129;-76
2022/12/18 06:39:11;;;;;;;32.20;14.43;;;-4.30;99.90;;;;;;4982245;28;20073;-75
2022/12/18 06:41:36;;;;;;;18.13;11.27;;;-4.30;99.90;;;;;;4983775;28;20045;-76
2022/12/18 06:44:02;;;;;;;19.73;12.30;;;-4.30;99.90;;;;;;4976855;28;20043;-75
2022/12/18 06:46:28;;;;;;;25.70;11.17;;;-4.30;99.90;;;;;;4965214;28;20113;-74
2022/12/18 06:48:54;;;;;;;20.77;12.87;;;-4.30;99.90;;;;;;4964554;28;20493;-75
2022/12/18 06:51:22;;;;;;;31.77;13.00;;;-4.30;99.90;;;;;;4963854;28;20161;-75
2022/12/18 06:53:47;;;;;;;18.73;11.83;;;-4.30;99.90;;;;;;4964700;28;20429;-75
2022/12/18 06:56:13;;;;;;;14.93;11.83;;;-4.40;99.90;;;;;;4962087;28;20055;-75
2022/12/18 06:58:39;;;;;;;24.27;12.33;;;-4.40;99.90;;;;;;4965103;28;20050;-76
2022/12/18 07:01:07;;;;;;;17.80;12.70;;;-4.40;99.90;;;;;;4968389;28;20711;-75
2022/12/18 07:03:33;;;;;;;16.43;10.77;;;-4.40;99.90;;;;;;4984187;28;20038;-75
2022/12/18 07:05:59;;;;;;;17.90;9.67;;;-4.40;99.90;;;;;;4982949;28;20049;-75
2022/12/18 07:08:25;;;;;;;16.93;9.77;;;-4.40;99.90;;;;;;4984115;28;20551;-74
2022/12/18 07:10:50;;;;;;;13.30;9.27;;;-4.40;99.90;;;;;;4982684;28;20085;-75
2022/12/18 07:13:16;;;;;;;24.03;13.23;;;-4.40;99.90;;;;;;4984188;28;20497;-75
2022/12/18 07:15:43;;;;;;;16.63;12.20;;;-4.40;99.90;;;;;;4974182;28;20102;-76
2022/12/18 07:18:09;;;;;;;13.33;9.63;;;-4.40;99.90;;;;;;4964273;28;20512;-77
2022/12/18 07:20:34;;;;;;;15.63;10.47;;;-4.30;99.90;;;;;;4964608;28;20047;-76
2022/12/18 07:23:02;;;;;;;22.87;13.70;;;-4.30;99.90;;;;;;4963036;28;20047;-76
2022/12/18 07:25:28;;;;;;;15.27;12.33;;;-4.20;99.90;;;;;;4963034;28;20474;-74
2022/12/18 07:27:54;;;;;;;25.53;12.20;;;-4.20;99.90;;;;;;4979688;28;20125;-75
2022/12/18 07:30:19;;;;;;;13.57;8.50;;;-4.20;99.90;;;;;;4983299;28;20520;-75
2022/12/18 07:32:45;;;;;;;23.80;9.87;;;-4.20;99.90;;;;;;4984109;28;20038;-75
2022/12/18 07:35:11;;;;;;;22.47;11.03;;;-4.20;99.90;;;;;;4980668;28;20081;-74
2022/12/18 07:37:36;;;;;;;22.83;10.57;;;-4.20;99.90;;;;;;4969371;28;20089;-75
2022/12/18 07:40:02;;;;;;;21.50;12.07;;;-4.20;99.90;;;;;;4974136;28;20046;-75
2022/12/18 07:42:31;;;;;;;17.33;9.53;;;-4.20;99.90;;;;;;4964732;28;20047;-77
2022/12/18 07:45:00;;;;;;;20.63;10.80;;;-4.20;99.90;;;;;;4976164;28;20437;-75
2022/12/18 07:47:25;;;;;;;19.90;10.13;;;-4.20;99.90;;;;;;4969683;28;20047;-74
2022/12/18 07:49:51;;;;;;;24.30;12.03;;;-4.10;99.90;;;;;;4975968;28;20057;-76
2022/12/18 07:52:17;;;;;;;17.47;11.63;;;-4.10;99.90;;;;;;4964471;28;20039;-75
2022/12/18 07:54:42;;;;;;;17.43;9.90;;;-4.10;99.90;;;;;;4972409;28;20114;-75
2022/12/18 07:57:08;;;;;;;16.70;10.30;;;-4.10;99.90;;;;;;4981436;28;20566;-76
2022/12/18 07:59:34;;;;;;;13.53;9.50;;;-4.10;99.90;;;;;;4974206;28;20045;-76
2022/12/18 08:02:00;;;;;;;20.00;9.47;;;-4.20;99.90;;;;;;4969200;28;20035;-76
2022/12/18 08:04:26;;;;;;;31.83;9.17;;;-4.20;99.90;;;;;;4973468;28;20675;-75
2022/12/18 08:06:52;;;;;;;16.03;8.67;;;-4.20;99.90;;;;;;4971650;28;20054;-75
2022/12/18 08:09:17;;;;;;;19.73;11.80;;;-4.10;99.90;;;;;;4974948;28;20038;-74
2022/12/18 08:11:43;;;;;;;19.53;8.97;;;-4.10;99.90;;;;;;4975502;28;20167;-75
2022/12/18 08:14:09;;;;;;;14.30;9.80;;;-4.10;99.90;;;;;;4965954;28;20063;-73
2022/12/18 08:16:35;;;;;;;19.70;10.27;;;-4.10;99.90;;;;;;4973821;28;20054;-75
2022/12/18 08:19:01;;;;;;;15.97;10.17;;;-4.00;99.90;;;;;;4973712;28;20038;-75
2022/12/18 08:21:29;;;;;;;12.40;9.23;;;-4.00;99.90;;;;;;4970790;28;20042;-74
2022/12/18 08:24:00;;;;;;;8.93;7.57;;;-4.00;99.90;;;;;;4971807;28;20121;-75
2022/12/18 08:26:28;;;;;;;32.23;9.90;;;-4.00;99.90;;;;;;4974157;28;20057;-74
2022/12/18 08:28:56;;;;;;;18.30;8.53;;;-3.90;99.90;;;;;;4964469;28;20402;-75
2022/12/18 08:31:22;;;;;;;16.30;8.67;;;-3.90;99.90;;;;;;4964455;28;20050;-74
2022/12/18 08:33:50;;;;;;;14.07;10.17;;;-3.90;99.90;;;;;;4973481;28;20125;-74
2022/12/18 08:36:16;;;;;;;20.77;10.63;;;-3.90;99.90;;;;;;4974257;28;20050;-74
2022/12/18 08:38:42;;;;;;;19.90;8.93;;;-3.80;99.90;;;;;;4976104;28;20057;-76
2022/12/18 08:41:10;;;;;;;9.70;8.30;;;-3.80;99.90;;;;;;4986187;28;20047;-75
2022/12/18 08:46:23;;;;;;;11.23;9.67;;;-3.70;99.90;;;;;;4967085;28;20051;-75
2022/12/18 08:48:51;;;;;;;16.23;9.47;;;-3.70;99.90;;;;;;4974171;28;20048;-77
2022/12/18 08:51:17;;;;;;;23.43;10.13;;;-3.70;99.90;;;;;;4974968;28;20042;-73
2022/12/18 08:53:44;;;;;;;12.77;7.53;;;-3.70;99.90;;;;;;4974183;28;20669;-73
2022/12/18 08:56:10;;;;;;;14.50;8.40;;;-3.70;99.90;;;;;;4973771;28;20580;-73
2022/12/18 08:58:36;;;;;;;12.33;7.97;;;-3.60;99.90;;;;;;4969881;28;20035;-74
2022/12/18 09:01:06;;;;;;;11.63;8.17;;;-3.60;99.90;;;;;;4967979;28;20500;-73
2022/12/18 09:03:32;;;;;;;11.47;8.60;;;-3.60;99.90;;;;;;4967641;28;20138;-74
2022/12/18 09:05:59;;;;;;;16.27;9.30;;;-3.60;99.90;;;;;;4968094;28;20035;-74
2022/12/18 09:08:25;;;;;;;18.80;9.63;;;-3.50;99.90;;;;;;4980067;28;20109;-74
2022/12/18 09:10:51;;;;;;;18.70;10.40;;;-3.50;99.90;;;;;;4977393;28;20045;-74
2022/12/18 09:13:17;;;;;;;15.10;9.67;;;-3.40;99.90;;;;;;4970421;28;20057;-73
2022/12/18 09:15:49;;;;;;;13.50;9.77;;;-3.40;99.90;;;;;;4971614;28;20054;-73
2022/12/18 09:18:17;;;;;;;22.60;10.10;;;-3.30;99.90;;;;;;4962771;28;20058;-73
2022/12/18 09:20:42;;;;;;;15.37;8.93;;;-3.30;99.90;;;;;;4977748;28;20061;-73
2022/12/18 09:23:09;;;;;;;17.50;9.30;;;-3.30;99.90;;;;;;4979265;28;20550;-73
2022/12/18 09:25:36;;;;;;;12.10;8.07;;;-3.20;99.90;;;;;;4968276;28;20505;-73
2022/12/18 09:28:04;;;;;;;22.23;11.20;;;-3.20;99.90;;;;;;4972539;28;20058;-73
2022/12/18 09:30:30;;;;;;;14.73;8.07;;;-3.10;99.90;;;;;;4976293;28;20129;-74
2022/12/18 09:32:56;;;;;;;18.57;8.67;;;-3.10;99.90;;;;;;4977771;28;20038;-73
2022/12/18 09:35:22;;;;;;;15.90;8.93;;;-3.00;99.90;;;;;;4976168;28;20039;-73
2022/12/18 09:37:47;;;;;;;12.60;8.50;;;-3.00;99.90;;;;;;4968335;28;20655;-76
2022/12/18 09:40:16;;;;;;;16.20;9.80;;;-3.00;99.90;;;;;;4968778;28;20122;-74
2022/12/18 09:42:47;;;;;;;19.20;9.90;;;-2.90;99.90;;;;;;4977609;28;20098;-73
2022/12/18 09:45:14;;;;;;;23.13;9.40;;;-2.90;99.90;;;;;;4967059;28;20054;-74
2022/12/18 09:47:41;;;;;;;14.60;8.87;;;-2.90;99.90;;;;;;4968268;28;20043;-73
2022/12/18 09:50:29;;;;;;;13.93;8.73;;;-2.80;99.90;;;;;;4966475;28;20129;-72
2022/12/18 09:52:59;;;;;;;14.77;9.17;;;-2.80;99.90;;;;;;4976740;28;20082;-74
2022/12/18 09:55:30;;;;;;;11.87;7.13;;;-2.80;99.90;;;;;;4972555;28;20079;-74
2022/12/18 09:58:04;;;;;;;16.70;9.00;;;-2.70;99.90;;;;;;4973164;28;20504;-74
2022/12/18 10:00:30;;;;;;;16.27;7.87;;;-2.70;99.90;;;;;;4977570;28;20046;-75
2022/12/18 10:03:03;;;;;;;16.73;9.90;;;-2.70;99.90;;;;;;4971212;28;20066;-77
2022/12/18 10:05:41;;;;;;;11.07;8.70;;;-2.70;99.90;;;;;;4972733;28;20121;-76
2022/12/18 10:08:41;;;;;;;10.43;7.80;;;-2.60;99.90;;;;;;4977197;28;20050;-74
2022/12/18 10:11:38;;;;;;;14.40;6.70;;;-2.60;99.90;;;;;;4970940;28;20481;-73
2022/12/18 10:14:40;;;;;;;13.80;10.37;;;-2.60;99.90;;;;;;4968519;28;20038;-79
2022/12/18 10:17:25;;;;;;;16.70;7.87;;;-2.60;99.90;;;;;;4979717;28;20130;-73
2022/12/18 10:20:01;;;;;;;13.93;8.70;;;-2.60;99.90;;;;;;4968311;28;20042;-74
2022/12/18 10:22:33;;;;;;;11.33;6.83;;;-2.50;99.90;;;;;;4970640;28;20402;-74
2022/12/18 10:25:22;;;;;;;10.85;6.80;;;-2.50;99.90;;;;;;4976373;28;20067;-72
2022/12/18 10:27:51;;;;;;;15.23;7.90;;;-2.50;99.90;;;;;;4979159;28;20359;-72
2022/12/18 10:30:19;;;;;;;13.80;6.40;;;-2.40;99.90;;;;;;4967407;28;20142;-73
2022/12/18 10:32:45;;;;;;;14.57;8.27;;;-2.40;99.90;;;;;;4972610;28;20413;-73
2022/12/18 10:35:25;;;;;;;14.97;7.50;;;-2.40;99.90;;;;;;4971964;28;20042;-72
2022/12/18 10:38:13;;;;;;;9.90;6.80;;;-2.30;99.90;;;;;;4981730;28;20100;-72
2022/12/18 10:40:54;;;;;;;7.63;5.87;;;-2.30;99.90;;;;;;4981111;28;20050;-72
2022/12/18 10:43:22;;;;;;;19.60;8.20;;;-2.20;99.90;;;;;;4963874;28;20034;-72
2022/12/18 10:46:21;;;;;;;11.13;7.93;;;-2.20;99.90;;;;;;4966013;28;20073;-73
2022/12/18 10:48:46;;;;;;;8.67;5.70;;;-2.10;99.90;;;;;;4953503;28;20087;-71
2022/12/18 10:51:19;;;;;;;6.53;5.57;;;-2.10;99.90;;;;;;4965121;28;20047;-71
2022/12/18 10:53:54;;;;;;;12.47;6.60;;;-2.10;99.90;;;;;;4964420;28;20047;-72
2022/12/18 10:56:21;;;;;;;10.17;5.97;;;-2.10;99.90;;;;;;4966255;28;20079;-73
2022/12/18 10:58:59;;;;;;;9.60;5.87;;;-2.00;99.90;;;;;;4970322;28;20038;-74
2022/12/18 11:01:26;;;;;;;10.87;7.00;;;-2.00;99.90;;;;;;4983625;28;20054;-73
2022/12/18 11:03:55;;;;;;;12.57;6.23;;;-1.90;99.90;;;;;;4983097;28;20053;-72
2022/12/18 11:06:24;;;;;;;9.63;7.27;;;-1.90;99.90;;;;;;4971815;28;20125;-72
2022/12/18 11:09:25;;;;;;;8.80;5.87;;;-1.90;99.90;;;;;;4974265;28;20078;-70
2022/12/18 11:12:03;;;;;;;12.97;7.90;;;-1.90;99.90;;;;;;4975390;28;20054;-71
2022/12/18 11:14:33;;;;;;;8.00;5.67;;;-1.80;99.90;;;;;;4979589;28;20500;-70
2022/12/18 11:17:00;;;;;;;15.10;7.40;;;-1.80;99.90;;;;;;4970287;28;20046;-71
2022/12/18 11:19:34;;;;;;;6.73;5.43;;;-1.70;99.90;;;;;;4969440;28;20108;-71
2022/12/18 11:22:04;;;;;;;11.30;6.77;;;-1.70;99.90;;;;;;4978908;28;20096;-70
2022/12/18 11:24:36;;;;;;;5.20;3.83;;;-1.70;99.90;;;;;;4975998;28;20042;-71
2022/12/18 11:27:03;;;;;;;;;;;-1.70;99.90;;;;;;4974700;28;20053;-71
2022/12/18 11:29:36;;;;;;;7.17;5.33;;;-1.60;99.90;;;;;;4965720;28;19930;-72
2022/12/18 11:32:23;;;;;;;13.10;6.20;;;-1.60;99.90;;;;;;4974344;28;20092;-71
2022/12/18 11:34:55;;;;;;;10.70;4.63;;;-1.60;99.90;;;;;;4981266;28;20050;-74
2022/12/18 11:37:20;;;;;;;5.43;4.32;;;-1.60;99.90;;;;;;4982000;28;20117;-69
2022/12/18 11:39:52;;;;;;;11.87;6.53;;;-1.50;99.90;;;;;;4976393;28;20133;-70
2022/12/18 11:42:27;;;;;;;10.75;7.72;;;-1.50;99.90;;;;;;4972043;28;20045;-71
2022/12/18 11:45:00;;;;;;;10.60;4.83;;;-1.50;99.90;;;;;;4962822;28;20042;-72
2022/12/18 11:47:43;;;;;;;7.17;5.43;;;-1.50;99.90;;;;;;4966168;28;20047;-70
2022/12/18 11:50:17;;;;;;;6.57;5.23;;;-1.50;99.90;;;;;;4968709;28;20052;-69
2022/12/18 11:52:42;;;;;;;7.97;5.33;;;-1.40;99.90;;;;;;4964640;28;20077;-70
2022/12/18 11:55:28;;;;;;;10.83;6.93;;;-1.40;99.90;;;;;;4963833;28;20046;-71
2022/12/18 11:58:15;;;;;;;8.87;5.67;;;-1.40;99.90;;;;;;4982395;28;20066;-71
2022/12/18 12:01:05;;;;;;;8.20;4.53;;;-1.40;99.90;;;;;;4965131;28;20075;-70
2022/12/18 12:03:50;;;;;;;9.70;4.83;;;-1.40;99.90;;;;;;4968912;28;20109;-70
2022/12/18 12:06:16;;;;;;;13.97;5.37;;;-1.40;99.90;;;;;;4984009;28;20612;-71
2022/12/18 12:09:01;;;;;;;6.77;6.00;;;-1.40;99.90;;;;;;4975937;28;20133;-72
2022/12/18 12:11:44;;;;;;;6.83;4.67;;;-1.40;99.90;;;;;;4979512;28;20050;-71
2022/12/18 12:14:31;;;;;;;11.30;5.97;;;-1.30;99.90;;;;;;4980949;28;20047;-69
2022/12/18 12:17:13;;;;;;;7.30;5.70;;;-1.30;99.90;;;;;;4981531;28;20042;-72
2022/12/18 12:20:12;;;;;;;5.87;4.40;;;-1.30;99.90;;;;;;4984900;28;20061;-70
2022/12/18 12:23:01;;;;;;;12.50;5.07;;;-1.30;99.90;;;;;;4986162;28;20496;-71
2022/12/18 12:25:44;;;;;;;9.70;5.70;;;-1.20;99.90;;;;;;4983289;28;20038;-72
2022/12/18 12:28:37;;;;;;;8.63;4.87;;;-1.30;99.90;;;;;;4965566;28;20043;-73
2022/12/18 12:31:13;;;;;;;;;;;-1.20;99.90;;;;;;4965587;28;20152;-70
2022/12/18 12:34:03;;;;;;;6.53;4.60;;;-1.20;99.90;;;;;;4966613;28;20392;-71
2022/12/18 12:36:42;;;;;;;6.73;5.00;;;-1.10;99.90;;;;;;4965690;28;20137;-70
2022/12/18 12:39:13;;;;;;;5.60;3.83;;;-1.20;99.90;;;;;;4964568;28;20405;-70
2022/12/18 12:44:33;;;;;;;7.13;5.47;;;-1.10;99.90;;;;;;4966208;28;20046;-73
2022/12/18 12:47:12;;;;;;;8.10;4.77;;;-1.10;99.90;;;;;;4966777;28;20056;-70
2022/12/18 12:49:39;;;;;;;7.53;6.03;;;-1.10;99.90;;;;;;4983504;28;20088;-70
2022/12/18 12:52:16;;;;;;;9.47;4.37;;;-1.00;99.90;;;;;;4974242;28;20476;-71
2022/12/18 12:54:42;;;;;;;5.37;3.90;;;-1.00;99.90;;;;;;4984592;28;20575;-71
2022/12/18 12:57:28;;;;;;;7.17;5.03;;;-1.00;99.90;;;;;;4968614;28;20711;-71